Terminal Aerodrome Forecast
Issued by NWS

Home | Current Version | Previous Version | Text Only | Print | Product List | Glossary On
Versions: 1 2 3 4 5 6 7 8 9 10 11 12 13 14 15 16 17 18
000
FTUS43 KGRR 300520
TAFLAN
TAF
KLAN 300520Z 3006/3106 VRB03KT 5SM BR VCSH OVC050
     FM301000 VRB03KT 1/2SM FG OVC005
     FM301400 15005KT 4SM BR SCT005 OVC015
     FM301600 23006KT P6SM BKN025
     FM302300 23005KT P6SM SKC=

USA.gov is the U.S. government's official web portal to all federal, state and local government web resources and services.